Time;durP1;ratioP1;P1;durP2;ratioP2;P2;SDS_P1;SDS_P2;PMS_P1;PMS_P2;Temp;Humidity;BMP_temperature;BMP_pressure;BME280_temperature;BME280_humidity;BME280_pressure;Samples;Min_cycle;Max_cycle;Signal;HPM_P1;HPM_P2
2022/04/01 00:00:52;;;;;;;12.40;10.43;;;1.30;1.00;;;;;;4934600;28;20276;-63
2022/04/01 00:03:19;;;;;;;17.50;13.90;;;1.30;22.00;;;;;;4951744;28;20253;-63
2022/04/01 00:05:46;;;;;;;14.30;12.73;;;1.20;1.00;;;;;;4949642;28;20211;-63
2022/04/01 00:08:13;;;;;;;20.17;14.50;;;1.30;1.00;;;;;;4951875;28;20254;-64
2022/04/01 00:10:43;;;;;;;19.87;14.57;;;1.30;1.00;;;;;;4935248;28;20215;-64
2022/04/01 00:13:13;;;;;;;14.40;12.70;;;1.30;1.00;;;;;;4950583;28;20198;-64
2022/04/01 00:15:43;;;;;;;13.93;11.83;;;1.30;1.00;;;;;;4944490;28;20206;-65
2022/04/01 00:18:11;;;;;;;13.17;11.37;;;1.30;59.30;;;;;;4932744;28;20199;-64
2022/04/01 00:20:39;;;;;;;16.47;11.90;;;1.20;1.00;;;;;;4946416;28;20287;-64
2022/04/01 00:23:06;;;;;;;17.00;10.17;;;1.20;1.00;;;;;;4958817;28;20678;-65
2022/04/01 00:25:33;;;;;;;14.57;12.20;;;1.20;1.00;;;;;;4934734;28;20202;-66
2022/04/01 00:28:00;;;;;;;16.23;11.60;;;1.20;99.90;;;;;;4943525;28;20210;-64
2022/04/01 00:30:27;;;;;;;15.93;11.80;;;1.20;1.00;;;;;;4935281;28;20313;-66
2022/04/01 00:32:55;;;;;;;18.50;11.70;;;1.20;1.00;;;;;;4951861;28;20234;-65
2022/04/01 00:35:22;;;;;;;14.53;12.23;;;1.20;1.00;;;;;;4943397;28;20231;-65
2022/04/01 00:37:49;;;;;;;12.77;10.57;;;1.20;1.00;;;;;;4925840;28;20198;-65
2022/04/01 00:40:16;;;;;;;14.43;11.63;;;1.20;99.90;;;;;;4931823;28;20852;-65
2022/04/01 00:42:44;;;;;;;13.73;10.47;;;1.20;99.90;;;;;;4956677;28;20254;-65
2022/04/01 00:45:16;;;;;;;14.33;10.50;;;1.20;99.90;;;;;;4934125;28;20214;-65
2022/04/01 00:47:45;;;;;;;11.93;9.97;;;1.30;1.00;;;;;;4942038;28;20744;-65
2022/04/01 00:50:13;;;;;;;10.17;8.33;;;1.30;1.00;;;;;;4958282;28;20202;-65
2022/04/01 00:52:44;;;;;;;11.73;8.80;;;1.30;1.00;;;;;;4941987;28;20294;-67
2022/04/01 00:55:14;;;;;;;11.10;9.13;;;1.20;1.00;;;;;;4944240;28;20215;-63
2022/04/01 00:57:43;;;;;;;14.50;9.03;;;1.20;1.00;;;;;;4944207;28;20704;-63
2022/04/01 01:00:14;;;;;;;10.83;8.47;;;1.20;1.00;;;;;;4926648;28;20234;-64
2022/04/01 01:02:45;;;;;;;8.93;7.67;;;1.20;1.00;;;;;;4942414;28;20249;-65
2022/04/01 01:05:13;;;;;;;10.30;7.83;;;1.20;1.00;;;;;;4926982;28;20203;-64
2022/04/01 01:11:18;;;;;;;9.27;7.77;;;1.10;1.00;;;;;;4960424;28;20206;-67
2022/04/01 01:13:45;;;;;;;9.93;7.80;;;1.10;1.00;;;;;;4942929;28;20338;-65
2022/04/01 01:16:19;;;;;;;11.30;8.47;;;1.00;1.00;;;;;;4934067;28;20240;-64
2022/04/01 01:19:20;;;;;;;9.70;7.97;;;1.10;98.00;;;;;;4942006;28;20285;-65
2022/04/01 01:21:52;;;;;;;12.93;7.27;;;1.10;99.90;;;;;;4898696;28;20252;-65
2022/04/01 01:24:36;;;;;;;8.30;6.90;;;1.00;1.00;;;;;;4927822;28;20265;-65
2022/04/01 01:27:08;;;;;;;8.77;6.43;;;1.10;1.00;;;;;;4943965;28;20597;-65
2022/04/01 01:29:40;;;;;;;8.53;7.13;;;1.00;19.20;;;;;;4941725;28;20215;-64
2022/04/01 01:32:10;;;;;;;9.17;6.03;;;1.00;1.00;;;;;;4948283;28;20254;-64
2022/04/01 01:34:41;;;;;;;6.20;5.50;;;1.00;99.90;;;;;;4948995;28;20215;-64
2022/04/01 01:37:10;;;;;;;7.00;6.30;;;1.00;1.00;;;;;;4932354;28;20199;-65
2022/04/01 01:39:38;;;;;;;8.90;6.10;;;1.00;1.00;;;;;;4943308;28;20220;-65
2022/04/01 01:42:10;;;;;;;8.70;6.07;;;1.00;99.90;;;;;;4935053;28;20231;-64
2022/04/01 01:44:37;;;;;;;5.87;5.27;;;0.90;1.00;;;;;;4930831;28;20202;-65
2022/04/01 01:47:06;;;;;;;6.77;6.07;;;0.90;1.00;;;;;;4937546;28;20206;-64
2022/04/01 01:49:34;;;;;;;7.13;6.23;;;1.00;99.90;;;;;;4934776;28;20210;-64
2022/04/01 01:54:50;;;;;;;7.37;6.30;;;0.90;1.00;;;;;;4950778;28;20246;-65
2022/04/01 01:57:22;;;;;;;6.53;5.83;;;0.90;99.90;;;;;;4942832;28;20273;-65
2022/04/01 01:59:55;;;;;;;6.03;5.43;;;0.90;99.90;;;;;;4933441;28;20190;-65
2022/04/01 02:02:24;;;;;;;8.47;6.10;;;0.90;99.90;;;;;;4944096;28;21331;-64
2022/04/01 02:04:53;;;;;;;5.97;5.07;;;0.90;99.90;;;;;;4927620;28;20309;-64
2022/04/01 02:07:24;;;;;;;7.60;6.10;;;0.80;1.00;;;;;;4944002;28;21136;-64
2022/04/01 02:09:51;;;;;;;6.87;6.17;;;0.80;1.00;;;;;;4947552;28;20214;-64
2022/04/01 02:12:21;;;;;;;6.87;6.17;;;0.80;99.90;;;;;;4947959;28;20230;-64
2022/04/01 02:14:50;;;;;;;7.07;5.50;;;0.80;99.90;;;;;;4947145;28;20226;-66
2022/04/01 02:17:19;;;;;;;6.23;5.57;;;0.80;99.90;;;;;;4937835;28;20256;-65
2022/04/01 02:19:46;;;;;;;5.73;5.03;;;0.70;99.90;;;;;;4932675;28;20190;-64
2022/04/01 02:22:15;;;;;;;6.70;6.00;;;0.80;99.90;;;;;;4935603;28;20294;-64
2022/04/01 02:24:43;;;;;;;6.53;5.87;;;0.70;99.90;;;;;;4946401;28;20199;-63
2022/04/01 02:27:12;;;;;;;8.47;5.33;;;0.70;1.00;;;;;;4930842;28;20686;-64
2022/04/01 02:29:39;;;;;;;6.83;6.10;;;0.70;99.90;;;;;;4949071;28;20233;-63
2022/04/01 02:32:18;;;;;;;6.87;5.57;;;0.70;99.90;;;;;;4947944;28;20229;-64
2022/04/01 02:35:14;;;;;;;5.60;5.07;;;0.70;1.00;;;;;;4953311;28;20226;-63
2022/04/01 02:37:43;;;;;;;6.50;5.73;;;0.70;99.90;;;;;;4936677;28;20198;-64
2022/04/01 02:40:11;;;;;;;6.57;5.70;;;0.70;99.90;;;;;;4937194;28;20210;-63
2022/04/01 02:42:41;;;;;;;7.03;5.70;;;0.70;1.00;;;;;;4954616;28;20270;-63
2022/04/01 02:45:14;;;;;;;9.43;6.43;;;0.70;1.00;;;;;;4948523;28;20229;-64
2022/04/01 02:47:41;;;;;;;7.50;5.87;;;0.70;1.00;;;;;;4927945;28;20211;-64
2022/04/01 02:50:08;;;;;;;8.50;6.73;;;0.70;99.90;;;;;;4935965;28;20221;-64
2022/04/01 02:52:36;;;;;;;7.03;6.33;;;0.70;1.00;;;;;;4937187;28;20217;-64
2022/04/01 02:55:05;;;;;;;6.27;5.60;;;0.70;99.90;;;;;;4925519;28;20218;-64
2022/04/01 02:57:33;;;;;;;7.80;6.60;;;0.70;1.00;;;;;;4924890;28;20812;-64
2022/04/01 03:00:01;;;;;;;7.27;5.83;;;0.70;99.90;;;;;;4932109;28;20202;-64
2022/04/01 03:02:30;;;;;;;7.27;6.47;;;0.70;99.90;;;;;;4954749;28;20578;-64
2022/04/01 03:04:58;;;;;;;6.60;5.47;;;0.70;79.60;;;;;;4936613;28;20207;-64
2022/04/01 03:07:26;;;;;;;5.57;5.07;;;0.60;77.80;;;;;;4945148;28;20238;-64
2022/04/01 03:09:53;;;;;;;7.23;5.93;;;0.60;1.00;;;;;;4938529;28;20237;-63
2022/04/01 03:12:22;;;;;;;7.43;6.07;;;0.60;1.00;;;;;;4938524;28;20290;-63
2022/04/01 03:14:51;;;;;;;7.53;6.27;;;0.60;99.90;;;;;;4962886;28;20296;-64
2022/04/01 03:17:31;;;;;;;6.03;4.83;;;0.60;1.00;;;;;;4948624;28;20206;-64
2022/04/01 03:20:11;;;;;;;7.57;6.73;;;0.60;99.90;;;;;;4946533;28;20233;-64
2022/04/01 03:22:38;;;;;;;8.53;6.90;;;0.60;1.00;;;;;;4945744;28;20209;-63
2022/04/01 03:25:06;;;;;;;7.13;6.43;;;0.70;99.90;;;;;;4945379;28;20226;-64
2022/04/01 03:27:47;;;;;;;7.10;6.30;;;0.60;1.00;;;;;;4952856;28;20202;-66
2022/04/01 03:30:17;;;;;;;7.33;6.27;;;0.60;1.00;;;;;;4946353;28;20663;-65
2022/04/01 03:32:50;;;;;;;7.57;6.73;;;0.60;1.00;;;;;;4930336;28;20272;-65
2022/04/01 03:35:19;;;;;;;6.40;5.80;;;0.60;1.00;;;;;;4945720;28;20266;-65
2022/04/01 03:37:46;;;;;;;6.70;6.00;;;0.60;1.00;;;;;;4946114;28;20187;-64
2022/04/01 03:40:16;;;;;;;7.63;6.53;;;0.50;99.90;;;;;;4953340;28;20202;-65
2022/04/01 03:42:45;;;;;;;6.30;5.70;;;0.60;99.90;;;;;;4934803;28;20256;-64
2022/04/01 03:45:13;;;;;;;7.07;6.37;;;0.60;99.90;;;;;;4934519;28;20203;-64
2022/04/01 03:48:00;;;;;;;6.93;6.23;;;0.60;1.00;;;;;;4944262;28;20435;-64
2022/04/01 03:50:30;;;;;;;6.30;5.37;;;0.60;1.00;;;;;;4949495;28;20211;-63
2022/04/01 03:53:08;;;;;;;6.27;5.67;;;0.60;1.00;;;;;;4935935;28;20223;-64
2022/04/01 03:55:41;;;;;;;6.07;5.47;;;0.60;1.00;;;;;;4950743;28;20219;-65
2022/04/01 03:58:46;;;;;;;6.43;5.63;;;0.60;99.90;;;;;;4955972;28;20294;-66
2022/04/01 04:01:53;;;;;;;5.17;4.67;;;0.60;99.90;;;;;;4922916;28;20199;-65
2022/04/01 04:04:21;;;;;;;6.10;5.30;;;0.60;1.00;;;;;;4944889;28;20253;-65
2022/04/01 04:06:51;;;;;;;5.60;4.77;;;0.60;1.00;;;;;;4942633;28;20206;-64
2022/04/01 04:09:22;;;;;;;5.90;4.63;;;0.60;99.90;;;;;;4962202;28;20687;-65
2022/04/01 04:11:50;;;;;;;5.40;4.40;;;0.60;92.30;;;;;;4946471;28;20254;-65
2022/04/01 04:14:27;;;;;;;5.67;4.93;;;0.60;99.90;;;;;;4932527;28;20214;-65
2022/04/01 04:16:57;;;;;;;6.30;5.03;;;0.60;99.90;;;;;;4944731;28;20257;-65
2022/04/01 04:19:51;;;;;;;6.53;4.90;;;0.60;62.60;;;;;;4946443;28;20210;-65
2022/04/01 04:22:59;;;;;;;4.77;4.27;;;0.60;1.00;;;;;;4932550;28;20571;-66
2022/04/01 04:25:34;;;;;;;7.10;4.40;;;0.50;1.00;;;;;;4915564;28;20720;-65
2022/04/01 04:28:12;;;;;;;4.57;4.17;;;0.60;1.00;;;;;;4935770;28;20247;-65
2022/04/01 04:30:50;;;;;;;6.33;4.47;;;0.50;1.00;;;;;;4945220;28;20245;-65
2022/04/01 04:33:41;;;;;;;4.77;4.10;;;0.50;1.00;;;;;;4948870;28;20230;-65
2022/04/01 04:36:10;;;;;;;5.53;4.77;;;0.60;1.00;;;;;;4945643;28;20226;-67
2022/04/01 04:38:54;;;;;;;6.10;5.47;;;0.60;99.90;;;;;;4949119;28;20254;-64
2022/04/01 04:41:22;;;;;;;4.47;3.87;;;0.50;99.90;;;;;;4948329;28;20231;-65
2022/04/01 04:44:04;;;;;;;5.60;5.00;;;0.50;91.30;;;;;;4930210;28;20222;-64
2022/04/01 04:46:34;;;;;;;8.20;5.57;;;0.50;99.90;;;;;;4944831;28;20634;-65
2022/04/01 04:49:02;;;;;;;6.67;5.63;;;0.50;99.90;;;;;;4942604;28;20226;-65
2022/04/01 04:51:31;;;;;;;5.03;4.23;;;0.50;99.90;;;;;;4949408;28;20210;-64
2022/04/01 04:54:25;;;;;;;7.07;5.60;;;0.60;99.90;;;;;;4957480;28;20298;-64
2022/04/01 04:57:16;;;;;;;10.73;6.57;;;0.50;99.90;;;;;;4951448;28;20745;-63
2022/04/01 04:59:45;;;;;;;10.77;7.03;;;0.60;99.90;;;;;;4944784;28;20199;-64
2022/04/01 05:02:42;;;;;;;8.13;6.67;;;0.50;99.90;;;;;;4949589;28;20685;-64
2022/04/01 05:05:18;;;;;;;6.67;5.40;;;0.60;99.90;;;;;;4936852;28;20241;-64
2022/04/01 05:08:22;;;;;;;6.43;5.33;;;0.50;99.90;;;;;;4946034;28;20570;-64
2022/04/01 05:11:05;;;;;;;6.50;5.20;;;0.60;99.90;;;;;;4961892;28;20437;-64
2022/04/01 05:13:55;;;;;;;5.80;4.40;;;0.60;99.90;;;;;;4960677;28;20303;-65
2022/04/01 05:16:48;;;;;;;6.93;4.93;;;0.60;99.90;;;;;;4934093;28;20249;-64
2022/04/01 05:19:24;;;;;;;4.17;3.70;;;0.60;99.90;;;;;;4927640;28;20203;-66
2022/04/01 05:22:05;;;;;;;7.50;5.43;;;0.60;99.90;;;;;;4927189;28;20845;-65
2022/04/01 05:24:52;;;;;;;5.07;3.57;;;0.60;99.90;;;;;;4954042;28;20215;-65
2022/04/01 05:27:30;;;;;;;7.97;5.80;;;0.50;1.00;;;;;;4937768;28;20210;-66
2022/04/01 05:30:36;;;;;;;5.90;4.93;;;0.60;98.50;;;;;;4953371;28;20653;-64
2022/04/01 05:33:10;;;;;;;11.60;6.97;;;0.60;99.90;;;;;;4926682;28;20290;-64
2022/04/01 05:35:43;;;;;;;6.73;5.47;;;0.60;17.70;;;;;;4928399;28;20544;-65
2022/04/01 05:38:14;;;;;;;6.93;4.83;;;0.60;99.90;;;;;;4956817;28;20194;-65
2022/04/01 05:40:41;;;;;;;5.90;5.00;;;0.70;99.90;;;;;;4959807;28;20301;-65
2022/04/01 05:43:13;;;;;;;5.67;4.50;;;0.60;24.10;;;;;;4954362;28;20676;-65
2022/04/01 05:46:00;;;;;;;5.23;4.60;;;0.60;9.00;;;;;;4956219;28;20204;-65
2022/04/01 05:48:28;;;;;;;6.43;5.10;;;0.60;66.20;;;;;;4960958;28;20241;-65
2022/04/01 05:51:02;;;;;;;5.10;4.17;;;0.60;1.00;;;;;;4941479;28;20216;-66
2022/04/01 05:53:37;;;;;;;6.10;4.57;;;0.60;1.00;;;;;;4930868;28;20274;-64
2022/04/01 05:56:09;;;;;;;5.57;4.20;;;0.60;1.00;;;;;;4942749;28;20219;-64
2022/04/01 05:58:36;;;;;;;6.33;5.00;;;0.60;1.00;;;;;;4942424;28;20684;-65
2022/04/01 06:01:42;;;;;;;6.70;4.97;;;0.50;1.00;;;;;;4944140;28;20198;-65
2022/04/01 06:04:16;;;;;;;4.77;3.93;;;0.50;1.00;;;;;;4955346;28;20252;-63
2022/04/01 06:06:48;;;;;;;5.53;4.83;;;0.60;1.00;;;;;;4923853;28;20217;-64
2022/04/01 06:09:58;;;;;;;5.37;4.27;;;0.60;1.00;;;;;;4907102;28;20669;-65
2022/04/01 06:12:57;;;;;;;6.90;5.07;;;0.70;1.00;;;;;;4959130;28;20196;-65
2022/04/01 06:16:37;;;;;;;6.33;4.63;;;0.70;1.00;;;;;;4846119;29;20718;-63
2022/04/01 06:19:46;;;;;;;5.03;4.53;;;0.70;1.00;;;;;;4819504;29;20301;-64
2022/04/01 06:22:18;;;;;;;6.77;5.10;;;0.70;1.00;;;;;;4925381;28;20203;-63
2022/04/01 06:25:01;;;;;;;5.13;4.57;;;0.70;1.00;;;;;;4937630;28;20302;-63
2022/04/01 06:27:47;;;;;;;6.83;5.77;;;0.70;1.00;;;;;;4939380;28;20245;-63
2022/04/01 06:30:21;;;;;;;4.50;4.10;;;0.80;1.00;;;;;;4932268;28;20587;-64
2022/04/01 06:33:36;;;;;;;5.43;4.57;;;0.80;1.00;;;;;;4929642;28;20249;-65
2022/04/01 06:36:48;;;;;;;5.00;4.33;;;0.80;1.00;;;;;;4938897;28;20222;-63
2022/04/01 06:39:32;;;;;;;9.53;5.20;;;0.80;99.90;;;;;;4918765;29;20209;-64
2022/04/01 06:42:13;;;;;;;6.40;4.90;;;0.80;99.90;;;;;;4926705;28;20255;-63
2022/04/01 06:45:09;;;;;;;4.70;4.20;;;0.90;99.90;;;;;;4939060;28;20258;-64
2022/04/01 06:47:56;;;;;;;5.63;4.60;;;0.80;99.90;;;;;;4937671;28;20648;-65
2022/04/01 06:50:26;;;;;;;5.93;5.07;;;0.90;99.90;;;;;;4939249;28;20792;-64
2022/04/01 06:53:29;;;;;;;5.37;4.60;;;0.90;99.90;;;;;;4864356;29;20220;-65
2022/04/01 06:56:15;;;;;;;7.27;4.77;;;0.90;99.90;;;;;;4930094;28;20233;-65
2022/04/01 06:58:42;;;;;;;5.43;4.77;;;0.80;4.90;;;;;;4938774;28;20670;-64
2022/04/01 07:01:12;;;;;;;6.87;5.10;;;0.80;99.90;;;;;;4940829;28;20207;-63
2022/04/01 07:03:39;;;;;;;5.20;4.70;;;0.90;99.90;;;;;;4952981;28;20207;-64
2022/04/01 07:06:12;;;;;;;5.53;4.50;;;1.00;99.90;;;;;;4924649;28;20214;-64
2022/04/01 07:08:44;;;;;;;6.50;5.70;;;0.90;99.90;;;;;;4937191;28;20298;-64
2022/04/01 07:11:11;;;;;;;6.67;5.37;;;0.90;99.90;;;;;;4923592;29;20207;-64
2022/04/01 07:13:38;;;;;;;5.80;4.30;;;0.80;1.00;;;;;;4926559;29;20741;-64
2022/04/01 07:16:06;;;;;;;5.67;4.90;;;0.90;99.90;;;;;;4939267;28;20573;-64
2022/04/01 07:18:34;;;;;;;5.10;4.60;;;0.80;99.90;;;;;;4938039;28;20201;-64
2022/04/01 07:21:01;;;;;;;6.10;4.90;;;0.90;1.00;;;;;;4925579;29;20282;-64
2022/04/01 07:23:28;;;;;;;5.53;4.57;;;1.00;1.00;;;;;;4940934;28;20203;-64
2022/04/01 07:25:55;;;;;;;5.50;4.93;;;0.90;99.90;;;;;;4944469;28;20624;-64
2022/04/01 07:28:22;;;;;;;6.63;4.87;;;0.80;99.90;;;;;;4925894;28;20603;-63
2022/04/01 07:30:54;;;;;;;8.23;6.03;;;0.80;99.90;;;;;;4937050;28;20226;-64
2022/04/01 07:33:26;;;;;;;7.77;5.67;;;0.90;1.00;;;;;;4957699;28;20321;-64
2022/04/01 07:35:54;;;;;;;6.97;5.63;;;0.70;99.90;;;;;;4940469;28;20211;-64
2022/04/01 07:38:20;;;;;;;5.60;5.00;;;0.80;1.00;;;;;;4943853;28;20225;-63
2022/04/01 07:40:48;;;;;;;6.07;5.20;;;0.70;1.00;;;;;;4943849;28;20206;-63
2022/04/01 07:43:18;;;;;;;6.07;5.20;;;0.70;1.00;;;;;;4946318;28;20247;-64
2022/04/01 07:45:49;;;;;;;5.43;4.43;;;0.70;1.00;;;;;;4944023;28;20297;-64
2022/04/01 07:48:16;;;;;;;7.17;6.03;;;0.70;1.00;;;;;;4942100;28;20210;-64
2022/04/01 07:50:43;;;;;;;6.10;5.27;;;0.70;1.00;;;;;;4944644;28;20245;-64
2022/04/01 07:53:10;;;;;;;9.13;5.87;;;0.80;4.40;;;;;;4958714;28;21663;-64
2022/04/01 07:55:37;;;;;;;8.43;7.17;;;0.80;1.00;;;;;;4944220;28;20640;-64
2022/04/01 07:58:04;;;;;;;11.43;10.33;;;0.80;1.00;;;;;;4952107;28;20202;-64
2022/04/01 08:00:54;;;;;;;8.43;7.53;;;1.00;1.00;;;;;;4947918;28;20190;-63
2022/04/01 08:03:21;;;;;;;8.97;6.50;;;1.00;1.00;;;;;;4939458;28;20241;-65
2022/04/01 08:05:48;;;;;;;8.57;7.17;;;0.90;99.90;;;;;;4959292;28;20198;-65
2022/04/01 08:08:15;;;;;;;8.40;6.60;;;0.90;99.90;;;;;;4954865;28;20214;-64
2022/04/01 08:10:42;;;;;;;6.27;5.17;;;0.90;1.00;;;;;;4935536;28;20686;-65
2022/04/01 08:13:11;;;;;;;6.90;5.37;;;0.90;99.90;;;;;;4927826;28;20206;-65
2022/04/01 08:15:39;;;;;;;6.90;5.60;;;0.90;1.00;;;;;;4946357;28;20186;-64
2022/04/01 08:18:06;;;;;;;8.63;6.73;;;1.00;4.50;;;;;;4942674;28;20210;-64
2022/04/01 08:20:35;;;;;;;7.97;6.53;;;1.00;99.90;;;;;;4955716;28;20195;-65
2022/04/01 08:23:05;;;;;;;12.23;7.67;;;1.10;22.90;;;;;;4944238;28;20194;-65
2022/04/01 08:25:32;;;;;;;10.00;5.87;;;1.20;1.00;;;;;;4944709;28;20352;-64
2022/04/01 08:28:03;;;;;;;8.20;6.60;;;1.10;1.00;;;;;;4936452;28;20212;-64
2022/04/01 08:30:32;;;;;;;8.53;7.00;;;0.90;1.00;;;;;;4927547;28;20731;-64
2022/04/01 08:33:01;;;;;;;8.17;6.00;;;1.20;99.90;;;;;;4960858;28;20234;-65
2022/04/01 08:35:31;;;;;;;9.97;6.30;;;1.10;1.00;;;;;;4945502;28;20222;-64
2022/04/01 08:38:01;;;;;;;7.97;6.00;;;1.10;1.00;;;;;;4939176;28;20242;-65
2022/04/01 08:40:29;;;;;;;8.03;5.47;;;1.20;1.00;;;;;;4918232;28;20234;-65
2022/04/01 08:42:56;;;;;;;5.93;4.80;;;1.20;1.00;;;;;;4951502;28;20747;-65
2022/04/01 08:45:24;;;;;;;6.93;5.80;;;1.20;1.00;;;;;;4943918;28;20182;-64
2022/04/01 08:47:51;;;;;;;10.23;7.77;;;1.20;1.00;;;;;;4942084;28;20218;-64
2022/04/01 08:50:20;;;;;;;10.47;6.83;;;1.10;1.00;;;;;;4938691;28;20242;-64
2022/04/01 08:52:47;;;;;;;11.70;10.47;;;1.20;1.00;;;;;;4926484;28;20280;-64
2022/04/01 08:55:20;;;;;;;8.13;5.97;;;1.20;1.00;;;;;;4929163;28;20206;-66
2022/04/01 08:57:52;;;;;;;7.27;6.10;;;1.90;1.00;;;;;;4927534;28;20349;-65
2022/04/01 09:00:18;;;;;;;7.73;6.80;;;1.20;1.00;;;;;;4943143;28;20226;-66
2022/04/01 09:03:06;;;;;;;5.87;5.20;;;1.30;1.00;;;;;;4960954;28;20253;-65
2022/04/01 09:05:36;;;;;;;7.40;5.97;;;1.20;1.00;;;;;;4938838;28;20193;-66
2022/04/01 09:08:19;;;;;;;8.83;5.40;;;1.30;99.90;;;;;;4927260;28;20205;-66
2022/04/01 09:41:06;;;;;;;8.67;6.63;;;1.10;99.90;;;;;;4930226;28;20217;-65
2022/04/01 09:43:39;;;;;;;10.67;6.80;;;1.20;99.90;;;;;;4940325;28;20795;-66
2022/04/01 09:46:22;;;;;;;9.07;6.10;;;1.10;1.00;;;;;;4924046;28;20267;-64
2022/04/01 09:49:00;;;;;;;13.07;10.20;;;1.00;1.00;;;;;;4937446;28;20195;-66
2022/04/01 09:51:43;;;;;;;8.23;6.63;;;1.00;99.90;;;;;;4942987;28;20253;-66
2022/04/01 09:54:14;;;;;;;8.10;5.73;;;1.10;1.00;;;;;;4925215;28;20218;-65
2022/04/01 09:56:57;;;;;;;8.47;6.70;;;1.10;1.00;;;;;;4913672;29;20231;-66
2022/04/01 09:59:25;;;;;;;9.03;6.03;;;1.10;99.90;;;;;;4953609;28;20195;-64
2022/04/01 10:01:52;;;;;;;11.57;6.73;;;1.00;1.00;;;;;;4922993;29;20258;-64
2022/04/01 10:04:19;;;;;;;9.53;6.07;;;0.90;1.00;;;;;;4935305;28;20234;-65
2022/04/01 10:06:46;;;;;;;8.60;6.03;;;0.90;1.00;;;;;;4936211;28;20243;-63
2022/04/01 10:09:22;;;;;;;7.93;6.17;;;0.90;39.00;;;;;;4939481;28;20222;-65
2022/04/01 10:12:42;;;;;;;9.43;6.70;;;1.00;99.90;;;;;;4916893;28;20203;-65
2022/04/01 10:15:12;;;;;;;7.13;5.53;;;0.90;99.90;;;;;;4899369;29;20216;-65
2022/04/01 10:17:54;;;;;;;11.93;8.67;;;1.00;99.90;;;;;;4917233;29;20216;-65
2022/04/01 10:20:25;;;;;;;12.30;7.30;;;1.10;99.90;;;;;;4915234;29;20754;-66
2022/04/01 10:22:52;;;;;;;12.23;9.80;;;1.10;99.90;;;;;;4915609;29;20287;-65
2022/04/01 10:25:50;;;;;;;10.43;8.77;;;1.00;1.00;;;;;;4888658;29;20600;-63
2022/04/01 10:28:18;;;;;;;9.70;7.20;;;1.00;99.90;;;;;;4878609;29;20638;-64
2022/04/01 10:30:53;;;;;;;10.93;8.07;;;1.20;1.00;;;;;;4887080;29;20235;-64
2022/04/01 10:33:23;;;;;;;9.73;6.70;;;1.10;99.90;;;;;;4893427;29;20702;-66
2022/04/01 10:40:06;;;;;;;10.13;6.80;;;1.10;1.00;;;;;;4903700;29;20211;-65
2022/04/01 10:42:37;;;;;;;8.33;6.50;;;1.00;99.90;;;;;;4899857;29;20250;-66
2022/04/01 10:45:25;;;;;;;11.07;8.73;;;1.10;99.90;;;;;;4916720;29;20236;-66
2022/04/01 10:54:12;;;;;;;10.50;6.80;;;1.40;1.00;;;;;;4913564;28;20214;-66
2022/04/01 10:56:53;;;;;;;7.07;5.83;;;1.50;1.00;;;;;;4941506;28;20230;-66
2022/04/01 10:59:25;;;;;;;8.70;6.20;;;1.30;96.90;;;;;;4944423;28;20214;-66
2022/04/01 11:01:51;;;;;;;8.77;6.67;;;1.20;95.60;;;;;;4937843;28;20203;-66
2022/04/01 11:04:20;;;;;;;10.47;6.80;;;1.30;1.00;;;;;;4932086;28;20317;-66
2022/04/01 11:06:53;;;;;;;10.27;6.97;;;1.30;1.00;;;;;;4941239;28;20203;-65
2022/04/01 11:17:41;;;;;;;8.47;6.60;;;1.50;99.90;;;;;;4955073;28;20313;-65
2022/04/01 11:20:13;;;;;;;9.27;6.70;;;1.40;11.20;;;;;;4952462;28;20578;-64
2022/04/01 11:22:47;;;;;;;8.13;5.60;;;1.50;1.00;;;;;;4960104;28;20197;-64
2022/04/01 11:29:23;;;;;;;10.03;6.03;;;1.50;1.00;;;;;;4844570;28;20562;-63
2022/04/01 11:32:02;;;;;;;11.23;6.63;;;1.40;1.00;;;;;;4937984;28;20226;-64
2022/04/01 11:34:30;;;;;;;5.93;5.17;;;1.50;1.00;;;;;;4948350;28;20261;-64
2022/04/01 11:37:03;;;;;;;7.80;5.57;;;1.40;1.00;;;;;;4957930;28;20280;-64
2022/04/01 11:39:30;;;;;;;7.90;6.50;;;1.30;1.00;;;;;;4962998;28;20188;-65
2022/04/01 11:42:03;;;;;;;8.20;6.03;;;1.50;1.00;;;;;;4945359;28;20222;-64
2022/04/01 11:44:32;;;;;;;8.90;6.03;;;1.60;1.00;;;;;;4947179;28;20214;-63
2022/04/01 11:46:59;;;;;;;7.87;5.63;;;1.50;1.00;;;;;;4932747;28;20202;-64
2022/04/01 11:49:32;;;;;;;6.67;5.63;;;1.60;7.90;;;;;;4949305;28;20203;-64
2022/04/01 11:52:06;;;;;;;8.03;6.30;;;1.60;1.00;;;;;;4943949;28;20207;-65
2022/04/01 11:54:36;;;;;;;11.70;6.40;;;1.80;99.90;;;;;;4943688;28;20230;-64
2022/04/01 11:57:03;;;;;;;11.27;5.97;;;1.80;99.90;;;;;;4927335;28;20263;-65
2022/04/01 11:59:33;;;;;;;12.40;6.87;;;1.70;1.00;;;;;;4960839;28;20211;-64
2022/04/01 12:02:08;;;;;;;7.07;6.37;;;1.70;1.00;;;;;;4960139;28;20213;-64
2022/04/01 12:04:36;;;;;;;9.93;6.17;;;1.70;1.00;;;;;;4960159;28;20222;-66
2022/04/01 12:10:00;;;;;;;5.70;4.70;;;1.90;1.00;;;;;;4947378;28;20257;-64
2022/04/01 12:12:27;;;;;;;9.20;6.00;;;1.90;99.90;;;;;;4939185;28;20652;-64
2022/04/01 12:14:56;;;;;;;9.40;6.10;;;2.10;1.00;;;;;;4930048;28;20203;-64
2022/04/01 12:17:30;;;;;;;10.13;8.67;;;2.30;1.00;;;;;;4914958;28;20729;-64
2022/04/01 12:20:10;;;;;;;7.33;6.20;;;2.50;1.00;;;;;;4939844;28;20198;-65
2022/04/01 12:23:01;;;;;;;7.53;6.47;;;2.40;99.90;;;;;;4924709;28;20198;-63
2022/04/01 12:25:30;;;;;;;9.33;6.47;;;2.10;99.90;;;;;;4930208;28;20200;-63
2022/04/01 12:28:01;;;;;;;8.30;5.93;;;2.00;1.00;;;;;;4924228;28;20563;-64
2022/04/01 12:30:36;;;;;;;9.00;6.40;;;2.10;1.00;;;;;;4933508;28;20285;-63
2022/04/01 12:33:06;;;;;;;8.63;6.70;;;2.10;1.00;;;;;;4923823;28;20636;-63
2022/04/01 12:35:59;;;;;;;8.50;6.17;;;2.20;1.00;;;;;;4921457;28;20202;-64
2022/04/01 12:38:31;;;;;;;8.47;5.17;;;2.10;1.00;;;;;;4923646;28;20294;-64
2022/04/01 12:41:03;;;;;;;7.00;5.87;;;2.00;1.00;;;;;;4929981;28;20204;-65
2022/04/01 12:43:36;;;;;;;8.17;5.53;;;2.00;1.00;;;;;;4928749;28;20239;-65
2022/04/01 12:46:08;;;;;;;10.53;7.30;;;2.00;1.00;;;;;;4940341;28;20192;-64
2022/04/01 12:48:47;;;;;;;7.40;5.57;;;2.20;99.90;;;;;;4938304;28;20206;-65
2022/04/01 12:51:25;;;;;;;9.63;6.60;;;2.00;1.00;;;;;;4923656;28;20199;-64
2022/04/01 12:54:22;;;;;;;7.90;6.37;;;2.20;99.90;;;;;;4938234;28;20196;-64
2022/04/01 12:56:54;;;;;;;11.03;7.17;;;2.10;1.00;;;;;;4909419;28;20206;-64
2022/04/01 12:59:22;;;;;;;7.70;6.27;;;2.20;1.00;;;;;;4921502;28;20759;-64
2022/04/01 13:02:05;;;;;;;8.57;6.40;;;2.20;97.50;;;;;;4937382;28;20215;-63
2022/04/01 13:04:47;;;;;;;8.37;6.30;;;2.30;99.90;;;;;;4934183;28;20215;-63
2022/04/01 13:07:35;;;;;;;8.53;6.20;;;2.30;99.90;;;;;;4932431;28;20359;-64
2022/04/01 13:10:07;;;;;;;8.03;6.50;;;2.20;1.00;;;;;;4921966;28;20290;-65
2022/04/01 13:12:40;;;;;;;8.43;6.30;;;2.30;1.00;;;;;;4912372;28;20220;-65
2022/04/01 13:15:10;;;;;;;9.47;5.73;;;2.50;99.90;;;;;;4918607;28;20230;-64
2022/04/01 13:17:50;;;;;;;8.30;5.90;;;2.40;81.90;;;;;;4906537;28;20321;-64
2022/04/01 13:20:31;;;;;;;9.87;5.70;;;2.30;99.90;;;;;;4923839;29;20254;-64
2022/04/01 13:23:04;;;;;;;7.67;5.60;;;2.30;99.90;;;;;;4937340;28;21365;-64
2022/04/01 13:25:32;;;;;;;11.60;6.17;;;2.20;99.90;;;;;;4911143;28;20203;-64
2022/04/01 13:28:04;;;;;;;8.87;6.77;;;2.00;99.90;;;;;;4918677;28;20294;-64
2022/04/01 13:30:31;;;;;;;10.90;7.60;;;2.30;99.90;;;;;;4937780;28;20302;-64
2022/04/01 13:33:03;;;;;;;12.23;8.33;;;2.40;1.00;;;;;;4922507;28;20346;-64
2022/04/01 13:35:33;;;;;;;13.57;9.43;;;2.40;1.00;;;;;;4906976;28;20199;-64
2022/04/01 13:38:00;;;;;;;8.17;6.37;;;2.50;99.90;;;;;;4921178;28;20698;-64
2022/04/01 13:40:27;;;;;;;8.77;6.13;;;2.40;1.00;;;;;;4909852;28;20298;-64
2022/04/01 13:43:00;;;;;;;9.13;5.97;;;2.40;1.00;;;;;;4908832;28;20298;-64
2022/04/01 13:45:27;;;;;;;9.17;6.00;;;2.40;1.00;;;;;;4904552;28;20266;-64
2022/04/01 13:47:56;;;;;;;7.93;5.30;;;2.60;99.90;;;;;;4905498;28;20224;-64
2022/04/01 13:50:23;;;;;;;7.13;5.73;;;2.70;1.00;;;;;;4918982;28;20230;-64
2022/04/01 13:52:49;;;;;;;8.77;6.13;;;2.80;1.00;;;;;;4923874;29;20211;-63
2022/04/01 13:55:19;;;;;;;5.77;4.27;;;2.80;1.00;;;;;;4920217;29;20208;-66
2022/04/01 13:57:46;;;;;;;8.43;4.30;;;2.70;99.90;;;;;;4936952;28;20249;-64
2022/04/01 14:00:14;;;;;;;6.60;4.27;;;2.50;99.90;;;;;;4918990;28;20560;-64
2022/04/01 14:02:43;;;;;;;7.23;3.70;;;2.40;99.90;;;;;;4923504;28;20214;-64
2022/04/01 14:05:11;;;;;;;6.83;4.63;;;2.20;99.90;;;;;;4935125;28;20218;-64
2022/04/01 14:07:38;;;;;;;5.13;4.37;;;2.20;1.00;;;;;;4924141;28;20236;-64
2022/04/01 14:10:08;;;;;;;8.07;4.33;;;2.20;99.90;;;;;;4928653;28;20329;-66
2022/04/01 14:12:36;;;;;;;6.40;4.60;;;2.20;99.90;;;;;;4927297;28;20206;-66
2022/04/01 14:15:04;;;;;;;6.00;3.60;;;2.40;1.00;;;;;;4912461;28;20578;-66
2022/04/01 14:17:34;;;;;;;5.50;4.10;;;2.40;99.90;;;;;;4933148;28;20334;-65
2022/04/01 14:20:04;;;;;;;4.63;4.13;;;2.40;1.00;;;;;;4927847;28;20293;-65
2022/04/01 14:22:32;;;;;;;5.73;4.13;;;2.40;99.90;;;;;;4924531;28;20219;-66
2022/04/01 14:25:00;;;;;;;4.70;3.73;;;2.30;1.00;;;;;;4927261;28;20293;-65
2022/04/01 14:27:27;;;;;;;6.90;3.70;;;2.20;1.00;;;;;;4914452;28;20284;-65
2022/04/01 14:32:40;;;;;;;5.47;4.13;;;1.90;29.80;;;;;;4932690;28;20200;-64
2022/04/01 14:35:07;;;;;;;9.97;6.13;;;1.90;1.00;;;;;;4925748;28;20203;-65
2022/04/01 14:37:35;;;;;;;7.00;4.43;;;2.00;81.10;;;;;;4913347;28;20203;-65
2022/04/01 14:40:06;;;;;;;5.40;4.17;;;1.90;99.90;;;;;;4912958;28;20281;-65